Informes de METAR cercanos

 

LEXJ - Santander/Parayas, Spain
Distance from station: ESE 6km
Updated: 05/08/2020 14:30
Clear
Clear
 Wind from NE
Wind: NE 13 km/h
Temperature: 25°C
Dew Point: 18°C
Humidity: 65%
Barometer: 1013 hPa
Summary: Clear
Visibility: greater than 10 km
2020/08/05 12:30 LEXJ 051230Z 04007KT 330V080 CAVOK 25/18 Q1013
LEBB - Bilbao/Sondica, Spain
Distance from station: ESE 80km
Updated: 05/08/2020 14:30
Clear
Clear
 Wind from varies
Wind: varies 4 km/h
Temperature: 29°C
Heat Index: 28°C
Dew Point: 14°C
Humidity: 40%
Barometer: 1013 hPa
Summary: Clear
Visibility: greater than 10 km
2020/08/05 12:30 LEBB 051230Z VRB02KT CAVOK 29/14 Q1013 NOSIG
 
LEBL - Barcelona Airpor, Spain
Distance from station: ESE 726km
Updated: 05/08/2020 14:30
Few Clouds
Few Clouds
 Wind from SSE
Wind: SSE 17 km/h
Temperature: 27°C
Heat Index: 29°C
Dew Point: 20°C
Humidity: 66%
Barometer: 1013 hPa
Clouds: Few Clouds
Visibility: 10 km
Cloud details: Few Clouds 762 m
2020/08/05 12:30 LEBL 051230Z 16009KT 130V210 9999 FEW025 27/20 Q1013 NOSIG
LEMD - Madrid/Barajas, Spain
Distance from station: S 325km
Updated: 05/08/2020 14:30
Clear
Clear
 Wind from S
Wind: S 13 km/h
Temperature: 34°C
Dew Point: 11°C
Humidity: 24%
Barometer: 1014 hPa
Summary: Clear
Visibility: greater than 10 km
2020/08/05 12:30 LEMD 051230Z 19007KT 150V250 CAVOK 34/11 Q1014 NOSIG
 
LPPT - Lisbon/Portela, Portugal
Distance from station: SW 663km
Updated: 05/08/2020 14:30
Clear
Clear
 Wind from NNW
Wind: NNW 13 km/h
Temperature: 31°C
Dew Point: 15°C
Humidity: 38%
Barometer: 1011 hPa
Summary: Clear
Visibility: greater than 10 km
2020/08/05 12:30 LPPT 051230Z 34007KT 290V020 CAVOK 31/15 Q1011
LECO - La Coruna/Alvedr, Spain
Distance from station: W 349km
Updated: 05/08/2020 14:30
Clear
Clear
 Wind from NNE
Wind: NNE 15 km/h
Temperature: 23°C
Dew Point: 17°C
Humidity: 69%
Barometer: 1015 hPa
Summary: Clear
Visibility: greater than 10 km
2020/08/05 12:30 LECO 051230Z 03008KT 340V070 CAVOK 23/17 Q1015 NOSIG
 
LEST - Santiago/Labacol, Spain
Distance from station: W 358km
Updated: 05/08/2020 14:30
Clear
Clear
 Wind from N
Wind: N 9 km/h
Temperature: 27°C
Heat Index: 27°C
Dew Point: 14°C
Humidity: 45%
Barometer: 1015 hPa
Summary: Clear
Visibility: greater than 10 km
2020/08/05 12:30 LEST 051230Z 01005KT 310V080 CAVOK 27/14 Q1015 NOSIG
EBBR - Brussels International Airport, Belgium
Distance from station: W 1339km
Updated: 05/08/2020 14:50
Clear
Clear
 Wind from SSW
Wind: SSW 17 km/h
Temperature: 28°C
Dew Point: 6°C
Humidity: 25%
Barometer: 1016 hPa
Summary: Clear
Visibility: greater than 10 km
2020/08/05 12:50 EBBR 051250Z 20009KT 140V250 CAVOK 28/06 Q1016 NOSIG